sensor_id;sensor_type;location;lat;lon;timestamp;P1;P4;P2;P0;N10;N4;N25;N1;N05;TS
79466;SPS30;68933;49.726;9.226;2023-06-10T00:01:29;17;;17;16.2;;;;;;
79466;SPS30;68933;49.726;9.226;2023-06-10T00:03:42;17;;17;16.2;;;;;;
79466;SPS30;68933;49.726;9.226;2023-06-10T00:05:55;16.4;;16.4;15.6;;;;;;
79466;SPS30;68933;49.726;9.226;2023-06-10T00:08:08;16.4;;16.4;15.6;;;;;;
79466;SPS30;68933;49.726;9.226;2023-06-10T00:10:21;17.7;;17.7;16.9;;;;;;
79466;SPS30;68933;49.726;9.226;2023-06-10T00:12:34;17.7;;17.7;16.9;;;;;;
79466;SPS30;68933;49.726;9.226;2023-06-10T00:14:47;16.5;;16.5;15.8;;;;;;
79466;SPS30;68933;49.726;9.226;2023-06-10T00:17:00;16.5;;16.5;15.8;;;;;;
79466;SPS30;68933;49.726;9.226;2023-06-10T00:19:13;15.8;;15.8;15.1;;;;;;
79466;SPS30;68933;49.726;9.226;2023-06-10T00:21:26;15.8;;15.8;15.1;;;;;;
79466;SPS30;68933;49.726;9.226;2023-06-10T00:23:39;15.8;;15.8;15.1;;;;;;
79466;SPS30;68933;49.726;9.226;2023-06-10T00:25:52;15.5;;15.5;14.8;;;;;;
79466;SPS30;68933;49.726;9.226;2023-06-10T00:28:05;15.5;;15.5;14.8;;;;;;
79466;SPS30;68933;49.726;9.226;2023-06-10T00:30:18;16.8;;16.8;16;;;;;;
79466;SPS30;68933;49.726;9.226;2023-06-10T00:32:31;16.8;;16.8;16;;;;;;
79466;SPS30;68933;49.726;9.226;2023-06-10T00:34:44;16.4;;16.4;15.6;;;;;;
79466;SPS30;68933;49.726;9.226;2023-06-10T00:36:57;16.4;;16.4;15.6;;;;;;
79466;SPS30;68933;49.726;9.226;2023-06-10T00:39:10;15.8;;15.8;15;;;;;;
79466;SPS30;68933;49.726;9.226;2023-06-10T00:41:23;15.8;;15.8;15;;;;;;
79466;SPS30;68933;49.726;9.226;2023-06-10T00:43:36;16.1;;16.1;15.3;;;;;;
79466;SPS30;68933;49.726;9.226;2023-06-10T00:45:49;16.1;;16.1;15.3;;;;;;
79466;SPS30;68933;49.726;9.226;2023-06-10T00:48:02;16.9;;16.9;16.1;;;;;;
79466;SPS30;68933;49.726;9.226;2023-06-10T00:50:15;16.9;;16.9;16.1;;;;;;
79466;SPS30;68933;49.726;9.226;2023-06-10T00:52:29;16.9;;16.9;16.1;;;;;;
79466;SPS30;68933;49.726;9.226;2023-06-10T00:54:41;15.4;;15.4;14.7;;;;;;
79466;SPS30;68933;49.726;9.226;2023-06-10T00:56:54;15.4;;15.4;14.7;;;;;;
79466;SPS30;68933;49.726;9.226;2023-06-10T00:59:07;16.6;;16.6;15.8;;;;;;
79466;SPS30;68933;49.726;9.226;2023-06-10T01:01:20;16.6;;16.6;15.8;;;;;;
79466;SPS30;68933;49.726;9.226;2023-06-10T01:03:33;17.1;;17.1;16.3;;;;;;
79466;SPS30;68933;49.726;9.226;2023-06-10T01:05:46;17.1;;17.1;16.3;;;;;;
79466;SPS30;68933;49.726;9.226;2023-06-10T01:08:00;17.1;;17.1;16.3;;;;;;
79466;SPS30;68933;49.726;9.226;2023-06-10T01:10:15;16.6;;16.6;15.8;;;;;;
79466;SPS30;68933;49.726;9.226;2023-06-10T01:12:26;16.6;;16.6;15.8;;;;;;
79466;SPS30;68933;49.726;9.226;2023-06-10T01:14:38;17.2;;17.2;16.4;;;;;;
79466;SPS30;68933;49.726;9.226;2023-06-10T01:16:51;17.2;;17.2;16.4;;;;;;
79466;SPS30;68933;49.726;9.226;2023-06-10T01:19:04;16.3;;16.3;15.6;;;;;;
79466;SPS30;68933;49.726;9.226;2023-06-10T01:21:19;16.3;;16.3;15.6;;;;;;
79466;SPS30;68933;49.726;9.226;2023-06-10T01:23:30;16.3;;16.3;15.6;;;;;;
79466;SPS30;68933;49.726;9.226;2023-06-10T01:25:44;16.2;;16.2;15.5;;;;;;
79466;SPS30;68933;49.726;9.226;2023-06-10T01:27:58;16.2;;16.2;15.5;;;;;;
79466;SPS30;68933;49.726;9.226;2023-06-10T01:30:11;17.7;;17.7;16.9;;;;;;
79466;SPS30;68933;49.726;9.226;2023-06-10T01:32:23;17.7;;17.7;16.9;;;;;;
79466;SPS30;68933;49.726;9.226;2023-06-10T01:34:35;18.7;;18.7;17.8;;;;;;
79466;SPS30;68933;49.726;9.226;2023-06-10T01:36:48;18.7;;18.7;17.8;;;;;;
79466;SPS30;68933;49.726;9.226;2023-06-10T01:39:01;18.7;;18.7;17.8;;;;;;
79466;SPS30;68933;49.726;9.226;2023-06-10T01:41:15;17.1;;17.1;16.3;;;;;;
79466;SPS30;68933;49.726;9.226;2023-06-10T01:43:27;17.1;;17.1;16.3;;;;;;
79466;SPS30;68933;49.726;9.226;2023-06-10T01:45:40;18.2;;18.2;17.3;;;;;;
79466;SPS30;68933;49.726;9.226;2023-06-10T01:47:53;18.2;;18.2;17.3;;;;;;
79466;SPS30;68933;49.726;9.226;2023-06-10T01:50:06;18.2;;18.2;17.3;;;;;;
79466;SPS30;68933;49.726;9.226;2023-06-10T01:52:19;18.2;;18.2;17.4;;;;;;
79466;SPS30;68933;49.726;9.226;2023-06-10T01:54:32;18.2;;18.2;17.4;;;;;;
79466;SPS30;68933;49.726;9.226;2023-06-10T01:56:45;18.4;;18.4;17.5;;;;;;
79466;SPS30;68933;49.726;9.226;2023-06-10T01:58:58;18.4;;18.4;17.5;;;;;;
79466;SPS30;68933;49.726;9.226;2023-06-10T02:01:11;18.4;;18.4;17.5;;;;;;
79466;SPS30;68933;49.726;9.226;2023-06-10T02:03:24;17.9;;17.9;17.1;;;;;;
79466;SPS30;68933;49.726;9.226;2023-06-10T02:05:37;17.9;;17.9;17.1;;;;;;
79466;SPS30;68933;49.726;9.226;2023-06-10T02:07:50;17.5;;17.5;16.7;;;;;;
79466;SPS30;68933;49.726;9.226;2023-06-10T02:10:03;17.5;;17.5;16.7;;;;;;
79466;SPS30;68933;49.726;9.226;2023-06-10T02:12:16;16.5;;16.5;15.7;;;;;;
79466;SPS30;68933;49.726;9.226;2023-06-10T02:14:29;16.5;;16.5;15.7;;;;;;
79466;SPS30;68933;49.726;9.226;2023-06-10T02:16:42;16.5;;16.5;15.7;;;;;;
79466;SPS30;68933;49.726;9.226;2023-06-10T02:18:55;17.3;;17.3;16.5;;;;;;
79466;SPS30;68933;49.726;9.226;2023-06-10T02:21:08;17.3;;17.3;16.5;;;;;;
79466;SPS30;68933;49.726;9.226;2023-06-10T02:23:21;17.9;;17.9;17;;;;;;
79466;SPS30;68933;49.726;9.226;2023-06-10T02:25:34;17.9;;17.9;17;;;;;;
79466;SPS30;68933;49.726;9.226;2023-06-10T02:27:47;16.7;;16.7;15.9;;;;;;
79466;SPS30;68933;49.726;9.226;2023-06-10T02:30:00;16.7;;16.7;15.9;;;;;;
79466;SPS30;68933;49.726;9.226;2023-06-10T02:32:13;17;;17;16.2;;;;;;
79466;SPS30;68933;49.726;9.226;2023-06-10T02:34:26;17;;17;16.2;;;;;;
79466;SPS30;68933;49.726;9.226;2023-06-10T02:36:39;17;;17;16.2;;;;;;
79466;SPS30;68933;49.726;9.226;2023-06-10T02:38:52;17.5;;17.5;16.7;;;;;;
79466;SPS30;68933;49.726;9.226;2023-06-10T02:41:05;17.5;;17.5;16.7;;;;;;
79466;SPS30;68933;49.726;9.226;2023-06-10T02:43:18;17.2;;17.2;16.4;;;;;;
79466;SPS30;68933;49.726;9.226;2023-06-10T02:45:31;17.2;;17.2;16.4;;;;;;
79466;SPS30;68933;49.726;9.226;2023-06-10T02:47:44;17.2;;17.2;16.4;;;;;;
79466;SPS30;68933;49.726;9.226;2023-06-10T02:49:57;17.2;;17.2;16.4;;;;;;
79466;SPS30;68933;49.726;9.226;2023-06-10T02:52:10;18.1;;18.1;17.3;;;;;;
79466;SPS30;68933;49.726;9.226;2023-06-10T02:54:23;18.1;;18.1;17.3;;;;;;
79466;SPS30;68933;49.726;9.226;2023-06-10T02:56:36;18.1;;18.1;17.3;;;;;;
79466;SPS30;68933;49.726;9.226;2023-06-10T02:58:49;18.8;;18.8;17.9;;;;;;
79466;SPS30;68933;49.726;9.226;2023-06-10T03:01:02;18.8;;18.8;17.9;;;;;;
79466;SPS30;68933;49.726;9.226;2023-06-10T03:03:15;17.3;;17.3;16.5;;;;;;
79466;SPS30;68933;49.726;9.226;2023-06-10T03:05:28;17.3;;17.3;16.5;;;;;;
79466;SPS30;68933;49.726;9.226;2023-06-10T03:07:41;17.3;;17.3;16.5;;;;;;
79466;SPS30;68933;49.726;9.226;2023-06-10T03:09:54;17.1;;17.1;16.3;;;;;;
79466;SPS30;68933;49.726;9.226;2023-06-10T03:12:07;17.1;;17.1;16.3;;;;;;
79466;SPS30;68933;49.726;9.226;2023-06-10T03:14:20;17.7;;17.7;16.9;;;;;;
79466;SPS30;68933;49.726;9.226;2023-06-10T03:16:33;17.7;;17.7;16.9;;;;;;
79466;SPS30;68933;49.726;9.226;2023-06-10T03:18:46;17.9;;17.9;17.1;;;;;;
79466;SPS30;68933;49.726;9.226;2023-06-10T03:20:59;17.9;;17.9;17.1;;;;;;
79466;SPS30;68933;49.726;9.226;2023-06-10T03:23:12;17.9;;17.9;17.1;;;;;;
79466;SPS30;68933;49.726;9.226;2023-06-10T03:25:25;17.6;;17.6;16.8;;;;;;
79466;SPS30;68933;49.726;9.226;2023-06-10T03:27:38;17.6;;17.6;16.8;;;;;;
79466;SPS30;68933;49.726;9.226;2023-06-10T03:29:51;17.6;;17.6;16.8;;;;;;
79466;SPS30;68933;49.726;9.226;2023-06-10T03:32:04;16.8;;16.8;16;;;;;;
79466;SPS30;68933;49.726;9.226;2023-06-10T03:34:17;16.8;;16.8;16;;;;;;
79466;SPS30;68933;49.726;9.226;2023-06-10T03:36:30;17.6;;17.6;16.8;;;;;;
79466;SPS30;68933;49.726;9.226;2023-06-10T03:38:43;17.6;;17.6;16.8;;;;;;
79466;SPS30;68933;49.726;9.226;2023-06-10T03:40:56;19.3;;19.3;18.4;;;;;;
79466;SPS30;68933;49.726;9.226;2023-06-10T03:43:09;19.3;;19.3;18.4;;;;;;
79466;SPS30;68933;49.726;9.226;2023-06-10T03:45:22;19.3;;19.3;18.4;;;;;;
79466;SPS30;68933;49.726;9.226;2023-06-10T03:47:36;19.3;;19.3;18.4;;;;;;
79466;SPS30;68933;49.726;9.226;2023-06-10T03:49:48;19.3;;19.3;18.4;;;;;;
79466;SPS30;68933;49.726;9.226;2023-06-10T03:52:01;19.6;;19.6;18.7;;;;;;
79466;SPS30;68933;49.726;9.226;2023-06-10T03:54:14;19.6;;19.6;18.7;;;;;;
79466;SPS30;68933;49.726;9.226;2023-06-10T03:56:27;19.6;;19.6;18.7;;;;;;
79466;SPS30;68933;49.726;9.226;2023-06-10T03:58:40;19.2;;19.2;18.3;;;;;;
79466;SPS30;68933;49.726;9.226;2023-06-10T04:00:53;19.2;;19.2;18.3;;;;;;
79466;SPS30;68933;49.726;9.226;2023-06-10T04:03:06;18;;18;17.2;;;;;;
79466;SPS30;68933;49.726;9.226;2023-06-10T04:05:19;18;;18;17.2;;;;;;
79466;SPS30;68933;49.726;9.226;2023-06-10T04:07:32;17.6;;17.6;16.7;;;;;;
79466;SPS30;68933;49.726;9.226;2023-06-10T04:09:45;17.6;;17.6;16.7;;;;;;
79466;SPS30;68933;49.726;9.226;2023-06-10T04:11:58;17.6;;17.6;16.7;;;;;;
79466;SPS30;68933;49.726;9.226;2023-06-10T04:14:11;18;;18;17.2;;;;;;
79466;SPS30;68933;49.726;9.226;2023-06-10T04:16:24;18;;18;17.2;;;;;;
79466;SPS30;68933;49.726;9.226;2023-06-10T04:18:37;18.9;;18.9;18;;;;;;
79466;SPS30;68933;49.726;9.226;2023-06-10T04:20:50;18.9;;18.9;18;;;;;;
79466;SPS30;68933;49.726;9.226;2023-06-10T04:23:03;18.9;;18.9;18;;;;;;
79466;SPS30;68933;49.726;9.226;2023-06-10T04:25:16;16.9;;16.9;16.1;;;;;;
79466;SPS30;68933;49.726;9.226;2023-06-10T04:27:29;16.9;;16.9;16.1;;;;;;
79466;SPS30;68933;49.726;9.226;2023-06-10T04:29:42;18.3;;18.3;17.5;;;;;;
79466;SPS30;68933;49.726;9.226;2023-06-10T04:31:55;18.3;;18.3;17.5;;;;;;
79466;SPS30;68933;49.726;9.226;2023-06-10T04:34:08;18.5;;18.5;17.6;;;;;;
79466;SPS30;68933;49.726;9.226;2023-06-10T04:36:21;18.5;;18.5;17.6;;;;;;
79466;SPS30;68933;49.726;9.226;2023-06-10T04:38:34;18.4;;18.4;17.5;;;;;;
79466;SPS30;68933;49.726;9.226;2023-06-10T04:40:47;18.4;;18.4;17.5;;;;;;
79466;SPS30;68933;49.726;9.226;2023-06-10T04:43:00;18.4;;18.4;17.5;;;;;;
79466;SPS30;68933;49.726;9.226;2023-06-10T04:45:13;18.1;;18.1;17.3;;;;;;
79466;SPS30;68933;49.726;9.226;2023-06-10T04:47:26;18.1;;18.1;17.3;;;;;;
79466;SPS30;68933;49.726;9.226;2023-06-10T04:49:39;18.7;;18.7;17.8;;;;;;
79466;SPS30;68933;49.726;9.226;2023-06-10T04:51:52;18.7;;18.7;17.8;;;;;;
79466;SPS30;68933;49.726;9.226;2023-06-10T04:54:05;18.6;;18.6;17.8;;;;;;
79466;SPS30;68933;49.726;9.226;2023-06-10T04:56:18;18.6;;18.6;17.8;;;;;;
79466;SPS30;68933;49.726;9.226;2023-06-10T04:58:31;18.6;;18.6;17.8;;;;;;
79466;SPS30;68933;49.726;9.226;2023-06-10T05:00:44;17.9;;17.9;17;;;;;;
79466;SPS30;68933;49.726;9.226;2023-06-10T05:02:57;17.9;;17.9;17;;;;;;
79466;SPS30;68933;49.726;9.226;2023-06-10T05:05:10;18.1;;18.1;17.3;;;;;;
79466;SPS30;68933;49.726;9.226;2023-06-10T05:07:23;18.1;;18.1;17.3;;;;;;
79466;SPS30;68933;49.726;9.226;2023-06-10T05:09:36;18.2;;18.2;17.4;;;;;;
79466;SPS30;68933;49.726;9.226;2023-06-10T05:11:49;18.2;;18.2;17.4;;;;;;
79466;SPS30;68933;49.726;9.226;2023-06-10T05:14:02;18.5;;18.5;17.6;;;;;;
79466;SPS30;68933;49.726;9.226;2023-06-10T05:16:15;18.5;;18.5;17.6;;;;;;
79466;SPS30;68933;49.726;9.226;2023-06-10T05:18:28;18.5;;18.5;17.6;;;;;;
79466;SPS30;68933;49.726;9.226;2023-06-10T05:20:41;19.7;;19.7;18.8;;;;;;
79466;SPS30;68933;49.726;9.226;2023-06-10T05:22:54;19.7;;19.7;18.8;;;;;;
79466;SPS30;68933;49.726;9.226;2023-06-10T05:25:07;19;;19;18.1;;;;;;
79466;SPS30;68933;49.726;9.226;2023-06-10T05:27:20;19;;19;18.1;;;;;;
79466;SPS30;68933;49.726;9.226;2023-06-10T05:29:33;18.5;;18.5;17.7;;;;;;
79466;SPS30;68933;49.726;9.226;2023-06-10T05:31:46;18.5;;18.5;17.7;;;;;;
79466;SPS30;68933;49.726;9.226;2023-06-10T05:33:59;19.1;;19.1;18.2;;;;;;
79466;SPS30;68933;49.726;9.226;2023-06-10T05:36:12;19.1;;19.1;18.2;;;;;;
79466;SPS30;68933;49.726;9.226;2023-06-10T05:38:25;19.1;;19.1;18.2;;;;;;
79466;SPS30;68933;49.726;9.226;2023-06-10T05:40:38;20.1;;20.1;19.2;;;;;;
79466;SPS30;68933;49.726;9.226;2023-06-10T05:42:51;20.1;;20.1;19.2;;;;;;
79466;SPS30;68933;49.726;9.226;2023-06-10T05:45:05;19.5;;19.5;18.6;;;;;;
79466;SPS30;68933;49.726;9.226;2023-06-10T05:47:17;19.5;;19.5;18.6;;;;;;
79466;SPS30;68933;49.726;9.226;2023-06-10T05:49:30;19.6;;19.6;18.7;;;;;;
79466;SPS30;68933;49.726;9.226;2023-06-10T05:51:43;19.6;;19.6;18.7;;;;;;
79466;SPS30;68933;49.726;9.226;2023-06-10T05:53:56;18.3;;18.3;17.4;;;;;;
79466;SPS30;68933;49.726;9.226;2023-06-10T05:56:09;18.3;;18.3;17.4;;;;;;
79466;SPS30;68933;49.726;9.226;2023-06-10T05:58:22;19.1;;19.1;18.3;;;;;;
79466;SPS30;68933;49.726;9.226;2023-06-10T06:00:35;19.1;;19.1;18.3;;;;;;
79466;SPS30;68933;49.726;9.226;2023-06-10T06:02:48;19.1;;19.1;18.3;;;;;;
79466;SPS30;68933;49.726;9.226;2023-06-10T06:05:01;17.9;;17.9;17;;;;;;
79466;SPS30;68933;49.726;9.226;2023-06-10T06:07:14;17.9;;17.9;17;;;;;;
79466;SPS30;68933;49.726;9.226;2023-06-10T06:09:27;19.3;;19.3;18.4;;;;;;
79466;SPS30;68933;49.726;9.226;2023-06-10T06:11:40;19.3;;19.3;18.4;;;;;;
79466;SPS30;68933;49.726;9.226;2023-06-10T06:13:53;19.5;;19.5;18.6;;;;;;
79466;SPS30;68933;49.726;9.226;2023-06-10T06:16:06;19.5;;19.5;18.6;;;;;;
79466;SPS30;68933;49.726;9.226;2023-06-10T06:18:19;18.6;;18.6;17.7;;;;;;
79466;SPS30;68933;49.726;9.226;2023-06-10T06:20:32;18.6;;18.6;17.7;;;;;;
79466;SPS30;68933;49.726;9.226;2023-06-10T06:22:45;18.6;;18.6;17.7;;;;;;
79466;SPS30;68933;49.726;9.226;2023-06-10T06:24:58;18;;18;17.1;;;;;;
79466;SPS30;68933;49.726;9.226;2023-06-10T06:27:11;18;;18;17.1;;;;;;
79466;SPS30;68933;49.726;9.226;2023-06-10T06:29:24;19.2;;19.2;18.3;;;;;;
79466;SPS30;68933;49.726;9.226;2023-06-10T06:31:37;19.2;;19.2;18.3;;;;;;
79466;SPS30;68933;49.726;9.226;2023-06-10T06:33:50;16.9;;16.9;16.1;;;;;;
79466;SPS30;68933;49.726;9.226;2023-06-10T06:36:03;16.9;;16.9;16.1;;;;;;
79466;SPS30;68933;49.726;9.226;2023-06-10T06:38:16;16.9;;16.9;16.1;;;;;;
79466;SPS30;68933;49.726;9.226;2023-06-10T06:40:29;17.8;;17.8;16.9;;;;;;
79466;SPS30;68933;49.726;9.226;2023-06-10T06:42:42;17.8;;17.8;16.9;;;;;;
79466;SPS30;68933;49.726;9.226;2023-06-10T06:44:55;16.8;;16.8;16;;;;;;
79466;SPS30;68933;49.726;9.226;2023-06-10T06:47:08;16.8;;16.8;16;;;;;;
79466;SPS30;68933;49.726;9.226;2023-06-10T06:49:21;16.8;;16.8;16;;;;;;
79466;SPS30;68933;49.726;9.226;2023-06-10T06:51:34;16.7;;16.7;15.9;;;;;;
79466;SPS30;68933;49.726;9.226;2023-06-10T06:53:47;16.7;;16.7;15.9;;;;;;
79466;SPS30;68933;49.726;9.226;2023-06-10T06:56:00;17;;17;16.2;;;;;;
79466;SPS30;68933;49.726;9.226;2023-06-10T06:58:13;17;;17;16.2;;;;;;
79466;SPS30;68933;49.726;9.226;2023-06-10T07:00:26;17;;17;16.2;;;;;;
79466;SPS30;68933;49.726;9.226;2023-06-10T07:02:39;16.7;;16.7;15.9;;;;;;
79466;SPS30;68933;49.726;9.226;2023-06-10T07:04:52;16.7;;16.7;15.9;;;;;;
79466;SPS30;68933;49.726;9.226;2023-06-10T07:07:06;15.2;;15.2;14.5;;;;;;
79466;SPS30;68933;49.726;9.226;2023-06-10T07:09:18;15.2;;15.2;14.5;;;;;;
79466;SPS30;68933;49.726;9.226;2023-06-10T07:11:31;14.7;;14.7;14;;;;;;
79466;SPS30;68933;49.726;9.226;2023-06-10T07:13:44;14.7;;14.7;14;;;;;;
79466;SPS30;68933;49.726;9.226;2023-06-10T07:15:57;14.7;;14.7;14;;;;;;
79466;SPS30;68933;49.726;9.226;2023-06-10T07:18:10;13.5;;13.5;12.9;;;;;;
79466;SPS30;68933;49.726;9.226;2023-06-10T07:20:23;13.5;;13.5;12.9;;;;;;
79466;SPS30;68933;49.726;9.226;2023-06-10T07:22:36;14.7;;14.7;14;;;;;;
79466;SPS30;68933;49.726;9.226;2023-06-10T07:24:49;14.7;;14.7;14;;;;;;
79466;SPS30;68933;49.726;9.226;2023-06-10T07:27:02;15.6;;15.6;14.9;;;;;;
79466;SPS30;68933;49.726;9.226;2023-06-10T07:29:15;15.6;;15.6;14.9;;;;;;
79466;SPS30;68933;49.726;9.226;2023-06-10T07:31:28;15.6;;15.6;14.9;;;;;;
79466;SPS30;68933;49.726;9.226;2023-06-10T07:33:41;14.1;;14.1;13.5;;;;;;
79466;SPS30;68933;49.726;9.226;2023-06-10T07:35:54;14.1;;14.1;13.5;;;;;;
79466;SPS30;68933;49.726;9.226;2023-06-10T07:38:07;15;;15;14.3;;;;;;
79466;SPS30;68933;49.726;9.226;2023-06-10T07:40:20;15;;15;14.3;;;;;;
79466;SPS30;68933;49.726;9.226;2023-06-10T07:42:34;13.9;;13.9;13.3;;;;;;
79466;SPS30;68933;49.726;9.226;2023-06-10T07:44:46;13.9;;13.9;13.3;;;;;;
79466;SPS30;68933;49.726;9.226;2023-06-10T07:46:59;13.9;;13.9;13.3;;;;;;
79466;SPS30;68933;49.726;9.226;2023-06-10T07:49:12;14.3;;14.3;13.6;;;;;;
79466;SPS30;68933;49.726;9.226;2023-06-10T07:51:25;14.3;;14.3;13.6;;;;;;
79466;SPS30;68933;49.726;9.226;2023-06-10T07:53:38;13.5;;13.5;12.9;;;;;;
79466;SPS30;68933;49.726;9.226;2023-06-10T07:55:51;13.5;;13.5;12.9;;;;;;
79466;SPS30;68933;49.726;9.226;2023-06-10T07:58:04;13.4;;13.4;12.8;;;;;;
79466;SPS30;68933;49.726;9.226;2023-06-10T08:00:17;13.4;;13.4;12.8;;;;;;
79466;SPS30;68933;49.726;9.226;2023-06-10T08:02:30;13.4;;13.4;12.8;;;;;;
79466;SPS30;68933;49.726;9.226;2023-06-10T08:04:43;14;;14;13.3;;;;;;
79466;SPS30;68933;49.726;9.226;2023-06-10T08:06:56;14;;14;13.3;;;;;;
79466;SPS30;68933;49.726;9.226;2023-06-10T08:09:09;13.3;;13.3;12.7;;;;;;
79466;SPS30;68933;49.726;9.226;2023-06-10T08:11:22;13.3;;13.3;12.7;;;;;;
79466;SPS30;68933;49.726;9.226;2023-06-10T08:13:35;13.3;;13.3;12.7;;;;;;
79466;SPS30;68933;49.726;9.226;2023-06-10T08:15:48;13.3;;13.3;12.7;;;;;;
79466;SPS30;68933;49.726;9.226;2023-06-10T08:18:01;13.3;;13.3;12.6;;;;;;
79466;SPS30;68933;49.726;9.226;2023-06-10T08:20:14;13.3;;13.3;12.6;;;;;;
79466;SPS30;68933;49.726;9.226;2023-06-10T08:22:27;12.3;;12.3;11.7;;;;;;
79466;SPS30;68933;49.726;9.226;2023-06-10T08:24:40;12.3;;12.3;11.7;;;;;;
79466;SPS30;68933;49.726;9.226;2023-06-10T08:26:53;12.3;;12.3;11.7;;;;;;
79466;SPS30;68933;49.726;9.226;2023-06-10T08:29:06;12.3;;12.3;11.8;;;;;;
79466;SPS30;68933;49.726;9.226;2023-06-10T08:31:19;12.3;;12.3;11.8;;;;;;
79466;SPS30;68933;49.726;9.226;2023-06-10T08:33:32;13.1;;13.1;12.5;;;;;;
79466;SPS30;68933;49.726;9.226;2023-06-10T08:35:45;13.1;;13.1;12.5;;;;;;
79466;SPS30;68933;49.726;9.226;2023-06-10T08:37:58;12.7;;12.7;12.1;;;;;;
79466;SPS30;68933;49.726;9.226;2023-06-10T08:40:11;12.7;;12.7;12.1;;;;;;
79466;SPS30;68933;49.726;9.226;2023-06-10T08:42:24;11.3;;11.3;10.8;;;;;;
79466;SPS30;68933;49.726;9.226;2023-06-10T08:44:37;11.3;;11.3;10.8;;;;;;
79466;SPS30;68933;49.726;9.226;2023-06-10T08:46:50;11.3;;11.3;10.8;;;;;;
79466;SPS30;68933;49.726;9.226;2023-06-10T08:49:04;14.2;;14.2;13.5;;;;;;
79466;SPS30;68933;49.726;9.226;2023-06-10T08:51:16;14.2;;14.2;13.5;;;;;;
79466;SPS30;68933;49.726;9.226;2023-06-10T08:53:29;10.6;;10.6;10.1;;;;;;
79466;SPS30;68933;49.726;9.226;2023-06-10T08:55:42;10.6;;10.6;10.1;;;;;;
79466;SPS30;68933;49.726;9.226;2023-06-10T08:57:55;10.4;;10.4;9.9;;;;;;
79466;SPS30;68933;49.726;9.226;2023-06-10T09:00:08;10.4;;10.4;9.9;;;;;;
79466;SPS30;68933;49.726;9.226;2023-06-10T09:02:21;10.2;;10.2;9.7;;;;;;
79466;SPS30;68933;49.726;9.226;2023-06-10T09:04:34;10.2;;10.2;9.7;;;;;;
79466;SPS30;68933;49.726;9.226;2023-06-10T09:06:48;10.4;;10.4;9.9;;;;;;
79466;SPS30;68933;49.726;9.226;2023-06-10T09:09:00;10.4;;10.4;9.9;;;;;;
79466;SPS30;68933;49.726;9.226;2023-06-10T09:11:13;10.4;;10.4;9.9;;;;;;
79466;SPS30;68933;49.726;9.226;2023-06-10T09:13:26;10.5;;10.5;10.1;;;;;;
79466;SPS30;68933;49.726;9.226;2023-06-10T09:15:39;10.5;;10.5;10.1;;;;;;
79466;SPS30;68933;49.726;9.226;2023-06-10T09:17:52;9.3;;9.3;8.9;;;;;;
79466;SPS30;68933;49.726;9.226;2023-06-10T09:20:06;9.3;;9.3;8.9;;;;;;
79466;SPS30;68933;49.726;9.226;2023-06-10T09:22:18;9.3;;9.3;8.9;;;;;;
79466;SPS30;68933;49.726;9.226;2023-06-10T09:24:31;8.4;;8.4;8;;;;;;
79466;SPS30;68933;49.726;9.226;2023-06-10T09:26:44;8.4;;8.4;8;;;;;;
79466;SPS30;68933;49.726;9.226;2023-06-10T09:29:01;8.7;;8.7;8.3;;;;;;
79466;SPS30;68933;49.726;9.226;2023-06-10T09:31:10;8.7;;8.7;8.3;;;;;;
79466;SPS30;68933;49.726;9.226;2023-06-10T09:33:23;9.5;;9.5;9;;;;;;
79466;SPS30;68933;49.726;9.226;2023-06-10T09:35:37;9.5;;9.5;9;;;;;;
79466;SPS30;68933;49.726;9.226;2023-06-10T09:37:50;9.5;;9.5;9;;;;;;
79466;SPS30;68933;49.726;9.226;2023-06-10T09:40:03;9.2;;9.2;8.7;;;;;;
79466;SPS30;68933;49.726;9.226;2023-06-10T09:42:15;9.2;;9.2;8.7;;;;;;
79466;SPS30;68933;49.726;9.226;2023-06-10T09:44:28;8.9;;8.9;8.5;;;;;;
79466;SPS30;68933;49.726;9.226;2023-06-10T09:46:41;8.9;;8.9;8.5;;;;;;
79466;SPS30;68933;49.726;9.226;2023-06-10T09:48:54;9.1;;9.1;8.7;;;;;;
79466;SPS30;68933;49.726;9.226;2023-06-10T09:51:08;9.1;;9.1;8.7;;;;;;
79466;SPS30;68933;49.726;9.226;2023-06-10T09:53:20;9.1;;9.1;8.7;;;;;;
79466;SPS30;68933;49.726;9.226;2023-06-10T09:55:33;9.2;;9.2;8.8;;;;;;
79466;SPS30;68933;49.726;9.226;2023-06-10T09:57:48;9.2;;9.2;8.8;;;;;;
79466;SPS30;68933;49.726;9.226;2023-06-10T09:59:59;9.8;;9.8;9.3;;;;;;
79466;SPS30;68933;49.726;9.226;2023-06-10T10:02:13;9.8;;9.8;9.3;;;;;;
79466;SPS30;68933;49.726;9.226;2023-06-10T10:04:25;9.1;;9.1;8.6;;;;;;
79466;SPS30;68933;49.726;9.226;2023-06-10T10:06:38;9.1;;9.1;8.6;;;;;;
79466;SPS30;68933;49.726;9.226;2023-06-10T10:08:51;9.2;;9.2;8.8;;;;;;
79466;SPS30;68933;49.726;9.226;2023-06-10T10:11:04;9.2;;9.2;8.8;;;;;;
79466;SPS30;68933;49.726;9.226;2023-06-10T10:13:17;9.2;;9.2;8.8;;;;;;
79466;SPS30;68933;49.726;9.226;2023-06-10T10:15:31;8.5;;8.5;8.2;;;;;;
79466;SPS30;68933;49.726;9.226;2023-06-10T10:17:44;8.5;;8.5;8.2;;;;;;
79466;SPS30;68933;49.726;9.226;2023-06-10T10:19:57;8.2;;8.2;7.8;;;;;;
79466;SPS30;68933;49.726;9.226;2023-06-10T10:22:11;8.2;;8.2;7.8;;;;;;
79466;SPS30;68933;49.726;9.226;2023-06-10T10:24:23;8.3;;8.3;7.9;;;;;;
79466;SPS30;68933;49.726;9.226;2023-06-10T10:26:35;8.3;;8.3;7.9;;;;;;
79466;SPS30;68933;49.726;9.226;2023-06-10T10:28:51;7.3;;7.3;6.9;;;;;;
79466;SPS30;68933;49.726;9.226;2023-06-10T10:31:02;7.3;;7.3;6.9;;;;;;
79466;SPS30;68933;49.726;9.226;2023-06-10T10:33:16;6.6;;6.6;6.3;;;;;;
79466;SPS30;68933;49.726;9.226;2023-06-10T10:35:27;6.6;;6.6;6.3;;;;;;
79466;SPS30;68933;49.726;9.226;2023-06-10T10:37:40;6.6;;6.6;6.3;;;;;;
79466;SPS30;68933;49.726;9.226;2023-06-10T10:39:53;7.5;;7.5;7.1;;;;;;
79466;SPS30;68933;49.726;9.226;2023-06-10T10:42:06;7.5;;7.5;7.1;;;;;;
79466;SPS30;68933;49.726;9.226;2023-06-10T10:44:19;6.5;;6.5;6.2;;;;;;
79466;SPS30;68933;49.726;9.226;2023-06-10T10:46:37;6.5;;6.5;6.2;;;;;;
79466;SPS30;68933;49.726;9.226;2023-06-10T10:48:45;5.9;;5.9;5.6;;;;;;
79466;SPS30;68933;49.726;9.226;2023-06-10T10:50:58;5.9;;5.9;5.6;;;;;;
79466;SPS30;68933;49.726;9.226;2023-06-10T10:53:11;6.6;;6.6;6.3;;;;;;
79466;SPS30;68933;49.726;9.226;2023-06-10T10:55:24;6.6;;6.6;6.3;;;;;;
79466;SPS30;68933;49.726;9.226;2023-06-10T10:57:38;6.6;;6.6;6.3;;;;;;
79466;SPS30;68933;49.726;9.226;2023-06-10T10:59:52;6.1;;6.1;5.9;;;;;;
79466;SPS30;68933;49.726;9.226;2023-06-10T11:02:03;6.1;;6.1;5.9;;;;;;
79466;SPS30;68933;49.726;9.226;2023-06-10T11:04:17;5.7;;5.7;5.5;;;;;;
79466;SPS30;68933;49.726;9.226;2023-06-10T11:06:29;5.7;;5.7;5.5;;;;;;
79466;SPS30;68933;49.726;9.226;2023-06-10T11:08:45;6.5;;6.5;6.2;;;;;;
79466;SPS30;68933;49.726;9.226;2023-06-10T11:10:55;6.5;;6.5;6.2;;;;;;
79466;SPS30;68933;49.726;9.226;2023-06-10T11:13:09;6.4;;6.4;6.1;;;;;;
79466;SPS30;68933;49.726;9.226;2023-06-10T11:15:22;6.4;;6.4;6.1;;;;;;
79466;SPS30;68933;49.726;9.226;2023-06-10T11:17:34;6.9;;6.9;6.5;;;;;;
79466;SPS30;68933;49.726;9.226;2023-06-10T11:19:47;6.9;;6.9;6.5;;;;;;
79466;SPS30;68933;49.726;9.226;2023-06-10T11:22:00;6.5;;6.5;6.2;;;;;;
79466;SPS30;68933;49.726;9.226;2023-06-10T11:24:13;6.5;;6.5;6.2;;;;;;
79466;SPS30;68933;49.726;9.226;2023-06-10T11:26:30;6.5;;6.5;6.2;;;;;;
79466;SPS30;68933;49.726;9.226;2023-06-10T11:28:39;6.3;;6.3;6;;;;;;
79466;SPS30;68933;49.726;9.226;2023-06-10T11:30:56;6.3;;6.3;6;;;;;;
79466;SPS30;68933;49.726;9.226;2023-06-10T11:33:05;6.1;;6.1;5.8;;;;;;
79466;SPS30;68933;49.726;9.226;2023-06-10T11:35:19;6.1;;6.1;5.8;;;;;;
79466;SPS30;68933;49.726;9.226;2023-06-10T11:37:31;6.1;;6.1;5.8;;;;;;
79466;SPS30;68933;49.726;9.226;2023-06-10T11:39:44;5.6;;5.6;5.4;;;;;;
79466;SPS30;68933;49.726;9.226;2023-06-10T11:41:57;5.6;;5.6;5.4;;;;;;
79466;SPS30;68933;49.726;9.226;2023-06-10T11:44:10;6.3;;6.3;6;;;;;;
79466;SPS30;68933;49.726;9.226;2023-06-10T11:46:23;6.3;;6.3;6;;;;;;
79466;SPS30;68933;49.726;9.226;2023-06-10T11:48:36;6.3;;6.3;6;;;;;;
79466;SPS30;68933;49.726;9.226;2023-06-10T11:50:49;5.8;;5.8;5.6;;;;;;
79466;SPS30;68933;49.726;9.226;2023-06-10T11:53:03;5.8;;5.8;5.6;;;;;;
79466;SPS30;68933;49.726;9.226;2023-06-10T11:55:15;6.2;;6.2;5.9;;;;;;
79466;SPS30;68933;49.726;9.226;2023-06-10T11:57:28;6.2;;6.2;5.9;;;;;;
79466;SPS30;68933;49.726;9.226;2023-06-10T11:59:41;5.4;;5.4;5.2;;;;;;
79466;SPS30;68933;49.726;9.226;2023-06-10T12:01:54;5.4;;5.4;5.2;;;;;;
79466;SPS30;68933;49.726;9.226;2023-06-10T12:04:07;5.4;;5.4;5.2;;;;;;
79466;SPS30;68933;49.726;9.226;2023-06-10T12:06:20;6.3;;6.3;6;;;;;;
79466;SPS30;68933;49.726;9.226;2023-06-10T12:08:33;6.3;;6.3;6;;;;;;
79466;SPS30;68933;49.726;9.226;2023-06-10T12:10:46;6.1;;6.1;5.8;;;;;;
79466;SPS30;68933;49.726;9.226;2023-06-10T12:12:59;6.1;;6.1;5.8;;;;;;
79466;SPS30;68933;49.726;9.226;2023-06-10T12:15:22;7.6;;7.6;7.2;;;;;;
79466;SPS30;68933;49.726;9.226;2023-06-10T12:17:35;7.6;;7.6;7.2;;;;;;